Current | Forecast
Updated: 7:00 AM JST on November 22, 2017
Observed at Miho AB, Japan
Temperature 39°F
Windchill 37°F
Humidity 81%
Dew Point 34°F
Wind South at 4 mph
Pressure 30.12 in (Falling)
Conditions Mostly Cloudy
Visibility 6.2 miles
UV 0 out of 16
Clouds (FEW) : 5000 ft
Mostly Cloudy (BKN) : 22000 ft
Yesterday's Maximum 55°F
Yesterday's Minimum 41°F approx.
Yesterday's Heating Degree Days 17 approx.
Sunrise6:49 AM JST
Sunset4:57 PM JST
Moon Rise9:39 AM JST
Moon Set7:58 PM JST
Moon PhaseMoon Phase
Waxing Crescent
Raw METARMETAR RJOH 212200Z 19003KT 9999 FEW050 BKN220 04/01 Q1020


Monday
. High: 71° F.
Tuesday
. High: 71° F.
Wednesday
. High: 66° F.
Thursday
. High: 69° F.
Friday
. High: 73° F.
Saturday
. High: 68° F.
Sunday
. High: 71° F.
Monday
. High: 69° F.

Units: English | Metric

Find the Weather for any City, State or Zipcode, or Country:

U.S. State List | Severe Weather | Tropical Storms | Ski Conditions
United States | Canada | Central America | South America | Asia | Europe | Australia | Africa | Islands

Weather Underground

© Copyright 2017
The Weather Company, LLC